Nanticoke, Maryland
Current Conditions -  °F | °C
As of 2:41 PM on Monday 22 Dec 2014 (Local Time) from KCGE Reporting Station
Overcast Overcast  
Wind Chill: 34°   Ceiling: 3400
Heat Index: 39°   Visibility: 4mi
Dew Point: 36°   Wind: 7mph
Humidity: 87%   Direction: 10°N
Pressure: 30.15"   Gusts: NA
Location:  38.27°N, 75.91°W
Report Text: KCGE 221941Z AUTO 01006KT 4SM OVC034 04/02 A3015 RMK AO1
Loading
Personal Weather Stations






























Interactive Weather Map New forecast layout! Learn more

10-Day Weather Forecast

Advertisements
Track Severe Weather on mobile